Centralia, IL

3:28 AM CST on January 22, 2017 (GMT -0600)
Centralia Municipal

Weather History for KENL - October, 2013

Change the Weather History Date:

Thursday, October 24, 2013

  Actual Average (KSLO) Record (KSLO)
Temperature  
Mean Temperature 41 °F -  
Max Temperature 50 °F 65 °F 85 °F (1963)
Min Temperature 32 °F 44 °F 21 °F (1981)
Degree Days  
Heating Degree Days 24    
Moisture  
Dew Point 31 °F    
Average Humidity 65    
Maximum Humidity 91    
Minimum Humidity 37    
Precipitation  
Precipitation 0.00 in - - ()
Sea Level Pressure  
Sea Level Pressure 30.24 in    
Wind  
Wind Speed 7 mph (NW)    
Max Wind Speed 20 mph    
Max Gust Speed 26 mph    
Visibility 10 miles    
Events      
Averages and records for this station are not official NWS values.
T = Trace of Precipitation, MM = Missing Value Source: NWS Daily Summary

Daily Weather History Graph

Daily Weather History Graph

Search for Another Location

Airport or City:

Trip Planner

Search our weather history database for the weather conditions in past years. The results will help you decide how hot, cold, wet, or windy it might be!

Date:

Astronomy

Oct. 24, 2013 Rise Set
Actual Time 7:14 AM CDT 6:05 PM CDT
Civil Twilight 6:47 AM CDT 6:32 PM CDT
Nautical Twilight 6:16 AM CDT 7:03 PM CDT
Astronomical Twilight 5:45 AM CDT 7:34 PM CDT
Moon 10:31 PM CDT (10/24) 12:14 PM CDT (10/24)
Length of Visible Light 11h 45m
Length of Day
10h 50m
Waning Gibbous, 71% of the Moon is Illuminated
Oct 24
Waning Gibbous
Oct 26
Last Quarter
Nov 3
New
Nov 9
First Quarter
Nov 17
Full

Hourly Weather History & Observations

Time (CDT) Temp. Windchill Dew Point Humidity Pressure Visibility Wind Dir Wind Speed Gust Speed Precip Events Conditions
12:15 AM 43.3 °F 39.2 °F 36.5 °F 77% 30.12 in 10.0 mi NW 6.9 mph - N/A   Overcast
12:35 AM 43.2 °F 39.0 °F 36.9 °F 78% 30.13 in 10.0 mi WNW 6.9 mph - N/A   Overcast
12:55 AM 43.2 °F 40.5 °F 37.2 °F 80% 30.13 in 10.0 mi NW 4.6 mph - N/A   Overcast
1:15 AM 42.8 °F - 37.4 °F 81% 30.12 in 10.0 mi Calm Calm - N/A   Overcast
1:35 AM 42.6 °F 40.9 °F 37.0 °F 81% 30.13 in 10.0 mi WNW 3.5 mph - N/A   Overcast
1:55 AM 42.3 °F 40.5 °F 36.9 °F 81% 30.12 in 10.0 mi NW 3.5 mph - N/A   Overcast
2:15 AM 41.4 °F 38.4 °F 36.1 °F 82% 30.12 in 10.0 mi NNW 4.6 mph - N/A   Mostly Cloudy
2:35 AM 41.0 °F 39.0 °F 36.5 °F 84% 30.12 in 10.0 mi North 3.5 mph - N/A   Mostly Cloudy
2:55 AM 40.6 °F - 36.9 °F 86% 30.12 in 10.0 mi Calm Calm - N/A   Overcast
3:15 AM 40.5 °F 38.4 °F 37.0 °F 88% 30.13 in 10.0 mi SSW 3.5 mph - N/A   Overcast
3:35 AM 39.4 °F - 36.5 °F 89% 30.13 in 10.0 mi Calm Calm - N/A   Scattered Clouds
3:55 AM 38.3 °F 33.9 °F 35.8 °F 91% 30.13 in 10.0 mi SW 5.8 mph - N/A   Scattered Clouds
4:15 AM 40.1 °F 38.0 °F 37.6 °F 91% 30.13 in 10.0 mi WSW 3.5 mph - N/A   Overcast
4:35 AM 41.2 °F 38.2 °F 38.3 °F 89% 30.13 in 10.0 mi WSW 4.6 mph - N/A   Overcast
4:55 AM 41.4 °F 37.6 °F 37.8 °F 87% 30.13 in 10.0 mi WSW 5.8 mph - N/A   Overcast
5:15 AM 41.7 °F 38.0 °F 37.9 °F 86% 30.14 in 10.0 mi West 5.8 mph - N/A   Overcast
5:35 AM 41.9 °F 39.0 °F 37.6 °F 85% 30.15 in 10.0 mi WSW 4.6 mph - N/A   Overcast
5:55 AM 41.9 °F 36.9 °F 37.8 °F 85% 30.16 in 10.0 mi WSW 8.1 mph - N/A   Overcast
6:15 AM 41.9 °F 37.5 °F 38.1 °F 86% 30.16 in 10.0 mi WSW 6.9 mph - N/A   Overcast
6:35 AM 42.1 °F 37.7 °F 38.1 °F 86% 30.17 in 10.0 mi WSW 6.9 mph - N/A   Overcast
6:55 AM 41.9 °F 38.2 °F 38.3 °F 87% 30.17 in 10.0 mi West 5.8 mph - N/A   Overcast
7:15 AM 42.1 °F 37.7 °F 38.3 °F 86% 30.17 in 10.0 mi West 6.9 mph - N/A   Overcast
7:35 AM 42.3 °F 39.4 °F 38.3 °F 86% 30.18 in 10.0 mi West 4.6 mph - N/A   Overcast
7:55 AM 42.8 °F 38.6 °F 38.1 °F 84% 30.19 in 10.0 mi WNW 6.9 mph - N/A   Overcast
8:15 AM 43.0 °F 38.2 °F 38.3 °F 84% 30.20 in 10.0 mi West 8.1 mph - N/A   Overcast
8:35 AM 43.2 °F 37.9 °F 36.9 °F 78% 30.21 in 10.0 mi WNW 9.2 mph - N/A   Overcast
8:55 AM 43.7 °F 39.1 °F 35.8 °F 74% 30.22 in 10.0 mi WNW 8.1 mph - N/A   Overcast
9:15 AM 43.7 °F 38.1 °F 34.5 °F 70% 30.23 in 10.0 mi WNW 10.4 mph - N/A   Overcast
9:35 AM 44.1 °F 38.1 °F 34.5 °F 69% 30.23 in 10.0 mi NW 11.5 mph - N/A   Overcast
9:55 AM 44.4 °F 39.0 °F 32.9 °F 64% 30.23 in 10.0 mi NW 10.4 mph 18.4 mph N/A   Overcast
10:15 AM 45.0 °F 37.6 °F 32.0 °F 60% 30.23 in 10.0 mi NNW 17.3 mph 21.9 mph N/A   Overcast
10:35 AM 43.9 °F 37.2 °F 30.6 °F 59% 30.25 in 10.0 mi NNW 13.8 mph - N/A   Overcast
10:55 AM 43.9 °F 38.3 °F 29.8 °F 58% 30.25 in 10.0 mi NW 10.4 mph - N/A   Mostly Cloudy
11:15 AM 47.8 °F - 27.1 °F 45% 30.25 in 10.0 mi NNW 16.1 mph 23.0 mph N/A   Scattered Clouds
11:35 AM 46.0 °F 39.0 °F 27.3 °F 48% 30.25 in 10.0 mi NW 17.3 mph 21.9 mph N/A   Mostly Cloudy
11:55 AM 48.0 °F - 25.3 °F 41% 30.25 in 10.0 mi NNW 15.0 mph 18.4 mph N/A   Mostly Cloudy
11:57 AM 48.2 °F - 24.8 °F 40% 30.26 in 10.0 mi NW 17.3 mph - N/A   Scattered Clouds
12:15 PM 48.2 °F - 23.0 °F 37% 30.25 in 10.0 mi NW 15.0 mph 25.3 mph N/A   Scattered Clouds
12:35 PM 48.6 °F - 23.0 °F 37% 30.25 in 10.0 mi WNW 15.0 mph 24.2 mph N/A   Mostly Cloudy
12:55 PM 47.5 °F - 24.1 °F 40% 30.25 in 10.0 mi NW 13.8 mph 19.6 mph N/A   Overcast
1:15 PM 48.4 °F - 24.3 °F 39% 30.25 in 10.0 mi WNW 12.7 mph 26.5 mph N/A   Overcast
1:35 PM 48.2 °F - 24.8 °F 40% 30.25 in 10.0 mi NW 15.0 mph 20.7 mph N/A   Overcast
1:55 PM 48.6 °F - 24.8 °F 39% 30.25 in 10.0 mi NNW 16.1 mph 24.2 mph N/A   Overcast
2:15 PM 49.1 °F - 24.6 °F 38% 30.25 in 10.0 mi NNW 19.6 mph 25.3 mph N/A   Overcast
2:35 PM 48.0 °F - 25.3 °F 41% 30.26 in 10.0 mi NW 15.0 mph 23.0 mph N/A   Mostly Cloudy
2:55 PM 49.1 °F - 25.9 °F 40% 30.26 in 10.0 mi NNW 15.0 mph 20.7 mph N/A   Mostly Cloudy
3:15 PM 48.2 °F - 25.5 °F 41% 30.27 in 10.0 mi NNW 11.5 mph 20.7 mph N/A   Mostly Cloudy
3:35 PM 48.0 °F - 25.3 °F 41% 30.27 in 10.0 mi NW 11.5 mph - N/A   Mostly Cloudy
3:55 PM 47.3 °F - 26.1 °F 44% 30.28 in 10.0 mi NW 16.1 mph 21.9 mph N/A   Overcast
4:15 PM 47.7 °F - 26.1 °F 43% 30.29 in 10.0 mi NW 10.4 mph 18.4 mph N/A   Overcast
4:35 PM 47.3 °F - 25.7 °F 43% 30.29 in 10.0 mi NNW 12.7 mph - N/A   Overcast
4:55 PM 46.8 °F - 25.7 °F 44% 30.29 in 10.0 mi NNW 12.7 mph 20.7 mph N/A   Overcast
5:15 PM 46.9 °F - 26.1 °F 44% 30.30 in 10.0 mi NW 13.8 mph 17.3 mph N/A   Overcast
5:35 PM 46.0 °F 41.4 °F 26.8 °F 47% 30.30 in 10.0 mi NNW 9.2 mph - N/A   Mostly Cloudy
5:55 PM 44.4 °F 40.5 °F 26.8 °F 50% 30.31 in 10.0 mi NNW 6.9 mph - N/A   Scattered Clouds
6:15 PM 43.2 °F 37.9 °F 27.0 °F 53% 30.32 in 10.0 mi NNW 9.2 mph - N/A   Clear
6:35 PM 41.0 °F 37.1 °F 27.3 °F 58% 30.33 in 10.0 mi NNW 5.8 mph - N/A   Clear
6:55 PM 41.9 °F 36.3 °F 27.5 °F 57% 30.33 in 10.0 mi NNW 9.2 mph - N/A   Clear
7:15 PM 41.9 °F 36.3 °F 27.7 °F 57% 30.34 in 10.0 mi NNW 9.2 mph - N/A   Scattered Clouds
7:35 PM 42.1 °F 37.1 °F 28.9 °F 60% 30.35 in 10.0 mi NNW 8.1 mph - N/A   Mostly Cloudy
7:55 PM 43.0 °F 37.7 °F 28.4 °F 56% 30.35 in 10.0 mi NNW 9.2 mph - N/A   Overcast
8:15 PM 42.8 °F 37.5 °F 27.9 °F 56% 30.36 in 10.0 mi NNW 9.2 mph - N/A   Overcast
8:35 PM 41.4 °F 36.2 °F 27.7 °F 58% 30.36 in 10.0 mi NNW 8.1 mph - N/A   Mostly Cloudy
8:55 PM 40.5 °F 35.8 °F 28.0 °F 61% 30.37 in 10.0 mi NNW 6.9 mph - N/A   Scattered Clouds
9:15 PM 38.7 °F 34.3 °F 27.7 °F 65% 30.37 in 10.0 mi NNW 5.8 mph - N/A   Scattered Clouds
9:35 PM 37.8 °F 33.3 °F 27.9 °F 67% 30.37 in 10.0 mi NNW 5.8 mph - N/A   Clear
9:55 PM 36.5 °F 32.7 °F 27.9 °F 71% 30.38 in 10.0 mi NW 4.6 mph - N/A   Clear
10:15 PM 37.0 °F 34.5 °F 28.0 °F 70% 30.38 in 10.0 mi NW 3.5 mph - N/A   Clear
10:35 PM 36.7 °F 34.1 °F 27.9 °F 70% 30.38 in 10.0 mi NW 3.5 mph - N/A   Clear
10:55 PM 35.4 °F - 27.7 °F 73% 30.39 in 10.0 mi Calm Calm - N/A   Clear
11:15 PM 34.3 °F - 27.5 °F 76% 30.39 in 10.0 mi Calm Calm - N/A   Clear
11:35 PM 33.1 °F - 27.5 °F 80% 30.40 in 10.0 mi Calm Calm - N/A   Clear
11:55 PM 32.2 °F - 27.9 °F 84% 30.40 in 10.0 mi Calm Calm - N/A   Clear